Marfret Guyane — FNMV — position and weather

sailwx.info

Track history (hours):
 
Tides and Currents Weather Stations Pressure Air Temp Water Temp Dewpoint Dewpoint Depression Visibility Wind Speed Wind Dir Waves Ship Positions

Marfret Guyane

Last reported at 2015-Jan-31 20:34 UTC. Time now 2015-Jan-31 21:14 UTC.
Position N 51°28' E 000°27'.

Length 170 m; draft 7.5 m.

Type: Ship (hazmat cat A). MMSI: 226324000.

Date/timePositionNaut miles runAvg speedWind from/ knotsBaromVisibWave heightAir tempDewpointWater temp
2015-Jan-31 20:34N 51°28' E 000°27'5 4.5
2015-Jan-31 19:31N 51°27' E 000°20'0 0.0
2015-Jan-31 18:33N 51°27' E 000°20'0 0.0
2015-Jan-31 17:34N 51°27' E 000°20'0 0.0
2015-Jan-31 16:33N 51°27' E 000°20'0 0.0
2015-Jan-31 15:32N 51°27' E 000°20'0 0.0
2015-Jan-31 14:32N 51°27' E 000°20'0 0.0
2015-Jan-31 13:34N 51°27' E 000°20'0 0.0
2015-Jan-31 12:34N 51°27' E 000°20'0 0.0
2015-Jan-31 11:33N 51°27' E 000°20'0 0.0
2015-Jan-31 10:32N 51°27' E 000°20'0 0.0
2015-Jan-31 09:32N 51°27' E 000°20'0 0.0
2015-Jan-31 08:32N 51°27' E 000°20'0 0.0
2015-Jan-31 07:33N 51°27' E 000°20'0 0.0
2015-Jan-31 06:34N 51°27' E 000°20'3 2.8
2015-Jan-31 05:33N 51°27' E 000°25'1212.3
2015-Jan-31 04:34N 51°30' E 000°44'1616.0
2015-Jan-31 03:34N 51°33' E 001°09'1212.0
2015-Jan-31 02:34N 51°33' E 001°28'6 6.4
2015-Jan-31 01:33N 51°28' E 001°36'1817.8
2015-Jan-31 00:33N 51°34' E 002°03'1817.8
2015-Jan-30 23:33N 51°47' E 002°23'3416.8
2015-Jan-30 21:33N 52°03' E 003°11'1818.1
2015-Jan-30 20:33N 52°04' E 003°40'1212.0
2015-Jan-30 19:34N 52°01' E 003°59'1212.0
2015-Jan-30 18:33N 51°54' E 004°16'6 5.6
2015-Jan-30 17:32N 51°53' E 004°24'0 0.0
2015-Jan-30 16:32N 51°53' E 004°24'0 0.0
2015-Jan-30 15:32N 51°53' E 004°24'0 0.0
2015-Jan-30 14:32N 51°53' E 004°24'0 0.0
2015-Jan-30 13:32N 51°53' E 004°24'0 0.0
2015-Jan-30 12:32N 51°53' E 004°24'0 0.0
2015-Jan-30 11:32N 51°53' E 004°24'0 0.0
2015-Jan-30 10:32N 51°53' E 004°24'0 0.0
2015-Jan-30 09:32N 51°53' E 004°24'0 0.0
2015-Jan-30 08:32N 51°53' E 004°24'0 0.0
2015-Jan-30 07:32N 51°53' E 004°24'0 0.0
2015-Jan-30 06:31N 51°53' E 004°24'0 0.0
2015-Jan-30 05:31N 51°53' E 004°24'0 0.0
2015-Jan-30 04:31N 51°53' E 004°24'0 0.0
2015-Jan-30 03:31N 51°53' E 004°24'0 0.0
2015-Jan-30 02:31N 51°53' E 004°24'0 0.0
2015-Jan-30 01:31N 51°53' E 004°24'0 0.0
2015-Jan-30 00:31N 51°53' E 004°24'0 0.0
2015-Jan-29 23:31N 51°53' E 004°24'0 0.0
2015-Jan-29 22:31N 51°53' E 004°24'0 0.0
2015-Jan-29 21:34N 51°53' E 004°24'1 1.4
2015-Jan-29 20:34N 51°54' E 004°23'6 6.3
2015-Jan-29 19:34N 51°56' E 004°13'9 9.0
2015-Jan-29 18:34N 51°60' E 004°00'7 7.3
2015-Jan-29 17:34N 52°00' E 003°48'9 9.2
2015-Jan-29 16:33N 51°55' E 003°36'0 0.2
2015-Jan-29 15:21N 51°55' E 003°36'0 0.0
2015-Jan-29 14:21N 51°55' E 003°36'0 0.0
2015-Jan-29 13:33N 51°55' E 003°36'0 0.0
2015-Jan-29 12:21N 51°55' E 003°36'0 0.0
2015-Jan-29 11:27N 51°55' E 003°36'1 0.6
2015-Jan-29 10:33N 51°56' E 003°37'1211.2
2015-Jan-29 09:30N 51°55' E 003°18'3216.2
2015-Jan-29 07:34N 51°41' E 002°31'1817.9
2015-Jan-29 06:33N 51°28' E 002°13'1817.9
2015-Jan-29 05:33N 51°15' E 001°52'1817.6
2015-Jan-29 04:34N 51°01' E 001°35'1916.4
2015-Jan-29 03:23N 50°43' E 001°23'1416.4
2015-Jan-29 02:33N 50°34' E 001°07'32015.2
2015-Jan-28 05:33N 48°06' W 006°07'56318.5
2015-Jan-26 23:09N 39°06' W 009°51'1218.5
2015-Jan-26 22:31N 38°54' W 009°52'1818.4
2015-Jan-26 21:33N 38°37' W 009°50'1818.4
2015-Jan-26 20:33N 38°19' W 009°45'1818.3
2015-Jan-26 19:33N 38°01' W 009°39'1818.2
2015-Jan-26 18:33N 37°44' W 009°34'1818.2
2015-Jan-26 17:33N 37°25' W 009°29'1818.2
2015-Jan-26 16:32N 37°08' W 009°23'1818.0
2015-Jan-26 15:32N 36°51' W 009°16'2018.6
2015-Jan-26 14:27N 36°41' W 008°53'2119.4
2015-Jan-26 13:23N 36°34' W 008°29'14819.0
2015-Jan-26 05:33N 35°59' W 005°30'9 8.9
2015-Jan-26 04:33N 36°07' W 005°25'0 0.3
2015-Jan-26 03:31N 36°08' W 005°25'0 0.0
2015-Jan-26 02:31N 36°08' W 005°25'0 0.0
2015-Jan-26 01:31N 36°08' W 005°25'0 0.0
2015-Jan-26 00:33N 36°08' W 005°25'0 0.0
2015-Jan-25 23:33N 36°08' W 005°25'0 0.0
2015-Jan-25 22:33N 36°08' W 005°25'0 0.0
2015-Jan-25 21:33N 36°08' W 005°25'0 0.0
2015-Jan-25 20:33N 36°08' W 005°25'0 0.0
2015-Jan-25 19:30N 36°08' W 005°25'1 1.5
2015-Jan-25 18:33N 36°08' W 005°24'1111.3
2015-Jan-25 17:33N 35°57' W 005°29'  
Track history (hours):
 
Tides and Currents Weather Stations Pressure Air Temp Water Temp Dewpoint Dewpoint Depression Visibility Wind Speed Wind Dir Waves Ship Positions

Marfret Guyane

Last reported at 2015-Jan-31 20:34 UTC. Time now 2015-Jan-31 21:14 UTC.
Position N 51°28' E 000°27'.

Length 170 m; draft 7.5 m.

Type: Ship (hazmat cat A). MMSI: 226324000.

Date/timePositionNaut miles runAvg speedWind from/ knotsBaromVisibWave heightAir tempDewpointWater temp
2015-Jan-31 20:34N 51°28' E 000°27'5 4.5
2015-Jan-31 19:31N 51°27' E 000°20'0 0.0
2015-Jan-31 18:33N 51°27' E 000°20'0 0.0
2015-Jan-31 17:34N 51°27' E 000°20'0 0.0
2015-Jan-31 16:33N 51°27' E 000°20'0 0.0
2015-Jan-31 15:32N 51°27' E 000°20'0 0.0
2015-Jan-31 14:32N 51°27' E 000°20'0 0.0
2015-Jan-31 13:34N 51°27' E 000°20'0 0.0
2015-Jan-31 12:34N 51°27' E 000°20'0 0.0
2015-Jan-31 11:33N 51°27' E 000°20'0 0.0
2015-Jan-31 10:32N 51°27' E 000°20'0 0.0
2015-Jan-31 09:32N 51°27' E 000°20'0 0.0
2015-Jan-31 08:32N 51°27' E 000°20'0 0.0
2015-Jan-31 07:33N 51°27' E 000°20'0 0.0
2015-Jan-31 06:34N 51°27' E 000°20'3 2.8
2015-Jan-31 05:33N 51°27' E 000°25'1212.3
2015-Jan-31 04:34N 51°30' E 000°44'1616.0
2015-Jan-31 03:34N 51°33' E 001°09'1212.0
2015-Jan-31 02:34N 51°33' E 001°28'6 6.4
2015-Jan-31 01:33N 51°28' E 001°36'1817.8
2015-Jan-31 00:33N 51°34' E 002°03'1817.8
2015-Jan-30 23:33N 51°47' E 002°23'3416.8
2015-Jan-30 21:33N 52°03' E 003°11'1818.1
2015-Jan-30 20:33N 52°04' E 003°40'1212.0
2015-Jan-30 19:34N 52°01' E 003°59'1212.0
2015-Jan-30 18:33N 51°54' E 004°16'6 5.6
2015-Jan-30 17:32N 51°53' E 004°24'0 0.0
2015-Jan-30 16:32N 51°53' E 004°24'0 0.0
2015-Jan-30 15:32N 51°53' E 004°24'0 0.0
2015-Jan-30 14:32N 51°53' E 004°24'0 0.0
2015-Jan-30 13:32N 51°53' E 004°24'0 0.0
2015-Jan-30 12:32N 51°53' E 004°24'0 0.0
2015-Jan-30 11:32N 51°53' E 004°24'0 0.0
2015-Jan-30 10:32N 51°53' E 004°24'0 0.0
2015-Jan-30 09:32N 51°53' E 004°24'0 0.0
2015-Jan-30 08:32N 51°53' E 004°24'0 0.0
2015-Jan-30 07:32N 51°53' E 004°24'0 0.0
2015-Jan-30 06:31N 51°53' E 004°24'0 0.0
2015-Jan-30 05:31N 51°53' E 004°24'0 0.0
2015-Jan-30 04:31N 51°53' E 004°24'0 0.0
2015-Jan-30 03:31N 51°53' E 004°24'0 0.0
2015-Jan-30 02:31N 51°53' E 004°24'0 0.0
2015-Jan-30 01:31N 51°53' E 004°24'0 0.0
2015-Jan-30 00:31N 51°53' E 004°24'0 0.0
2015-Jan-29 23:31N 51°53' E 004°24'0 0.0
2015-Jan-29 22:31N 51°53' E 004°24'0 0.0
2015-Jan-29 21:34N 51°53' E 004°24'1 1.4
2015-Jan-29 20:34N 51°54' E 004°23'6 6.3
2015-Jan-29 19:34N 51°56' E 004°13'9 9.0
2015-Jan-29 18:34N 51°60' E 004°00'7 7.3
2015-Jan-29 17:34N 52°00' E 003°48'9 9.2
2015-Jan-29 16:33N 51°55' E 003°36'0 0.2
2015-Jan-29 15:21N 51°55' E 003°36'0 0.0
2015-Jan-29 14:21N 51°55' E 003°36'0 0.0
2015-Jan-29 13:33N 51°55' E 003°36'0 0.0
2015-Jan-29 12:21N 51°55' E 003°36'0 0.0
2015-Jan-29 11:27N 51°55' E 003°36'1 0.6
2015-Jan-29 10:33N 51°56' E 003°37'1211.2
2015-Jan-29 09:30N 51°55' E 003°18'3216.2
2015-Jan-29 07:34N 51°41' E 002°31'1817.9
2015-Jan-29 06:33N 51°28' E 002°13'1817.9
2015-Jan-29 05:33N 51°15' E 001°52'1817.6
2015-Jan-29 04:34N 51°01' E 001°35'1916.4
2015-Jan-29 03:23N 50°43' E 001°23'1416.4
2015-Jan-29 02:33N 50°34' E 001°07'32015.2
2015-Jan-28 05:33N 48°06' W 006°07'56318.5
2015-Jan-26 23:09N 39°06' W 009°51'1218.5
2015-Jan-26 22:31N 38°54' W 009°52'1818.4
2015-Jan-26 21:33N 38°37' W 009°50'1818.4
2015-Jan-26 20:33N 38°19' W 009°45'1818.3
2015-Jan-26 19:33N 38°01' W 009°39'1818.2
2015-Jan-26 18:33N 37°44' W 009°34'1818.2
2015-Jan-26 17:33N 37°25' W 009°29'1818.2
2015-Jan-26 16:32N 37°08' W 009°23'1818.0
2015-Jan-26 15:32N 36°51' W 009°16'2018.6
2015-Jan-26 14:27N 36°41' W 008°53'2119.4
2015-Jan-26 13:23N 36°34' W 008°29'14819.0
2015-Jan-26 05:33N 35°59' W 005°30'9 8.9
2015-Jan-26 04:33N 36°07' W 005°25'0 0.3
2015-Jan-26 03:31N 36°08' W 005°25'0 0.0
2015-Jan-26 02:31N 36°08' W 005°25'0 0.0
2015-Jan-26 01:31N 36°08' W 005°25'0 0.0
2015-Jan-26 00:33N 36°08' W 005°25'0 0.0
2015-Jan-25 23:33N 36°08' W 005°25'0 0.0
2015-Jan-25 22:33N 36°08' W 005°25'0 0.0
2015-Jan-25 21:33N 36°08' W 005°25'0 0.0
2015-Jan-25 20:33N 36°08' W 005°25'0 0.0
2015-Jan-25 19:30N 36°08' W 005°25'1 1.5
2015-Jan-25 18:33N 36°08' W 005°24'1111.3
2015-Jan-25 17:33N 35°57' W 005°29'  

Dump ship's entire track history